Time;durP1;ratioP1;P1;durP2;ratioP2;P2;SDS_P1;SDS_P2;PMS_P1;PMS_P2;Temp;Humidity;BMP_temperature;BMP_pressure;BME280_temperature;BME280_humidity;BME280_pressure;Samples;Min_cycle;Max_cycle;Signal;HPM_P1;HPM_P2
2022/12/17 13:08:08;;;;;;;5.95;2.83;;;8.20;63.40;;;;;;5020345;28;20040;-75
2022/12/17 13:10:53;;;;;;;5.80;2.63;;;8.30;63.90;;;;;;5019118;28;20148;-81
2022/12/17 13:13:54;;;;;;;7.28;3.45;;;8.60;64.30;;;;;;5020180;28;20107;-85
2022/12/17 13:16:50;;;;;;;7.45;2.60;;;8.90;64.40;;;;;;5020588;28;20051;-76
2022/12/17 13:20:02;;;;;;;6.95;2.50;;;9.30;64.30;;;;;;5019252;28;20052;-77
2022/12/17 13:22:50;;;;;;;4.85;2.55;;;9.50;63.90;;;;;;5021508;28;20551;-76
2022/12/17 13:25:35;;;;;;;7.32;2.95;;;9.60;63.60;;;;;;5022035;28;20095;-77
2022/12/17 13:28:30;;;;;;;3.58;2.22;;;9.60;63.50;;;;;;5014083;28;20041;-78
2022/12/17 13:31:32;;;;;;;6.40;2.28;;;9.60;63.40;;;;;;5011959;28;20079;-77
2022/12/17 13:34:28;;;;;;;6.00;3.15;;;9.60;63.30;;;;;;5026639;28;20144;-75
2022/12/17 13:37:30;;;;;;;3.53;1.98;;;9.50;63.30;;;;;;5019535;28;20099;-78
2022/12/17 13:40:29;;;;;;;5.07;2.08;;;9.50;63.40;;;;;;5001459;28;20076;-83
2022/12/17 13:43:19;;;;;;;5.00;2.53;;;9.50;63.50;;;;;;5007770;28;20511;-88
2022/12/17 13:46:04;;;;;;;4.10;1.95;;;9.50;63.40;;;;;;4996019;28;20067;-89
2022/12/17 13:49:01;;;;;;;6.15;2.45;;;9.50;63.40;;;;;;5005829;28;20060;-90
2022/12/17 13:51:45;;;;;;;3.83;2.25;;;9.40;63.20;;;;;;5010450;28;20110;-94
2022/12/17 13:54:31;;;;;;;5.18;2.22;;;9.40;63.20;;;;;;5007264;28;20071;-87
2022/12/17 13:57:21;;;;;;;5.75;2.30;;;9.30;63.00;;;;;;5012740;28;20083;-88
2022/12/17 14:00:17;;;;;;;6.05;1.92;;;9.40;63.20;;;;;;5013599;28;20566;-92
2022/12/17 14:03:10;;;;;;;4.57;2.20;;;9.30;63.00;;;;;;5020037;28;20129;-90
2022/12/17 14:05:57;;;;;;;;;;;9.20;62.70;;;;;;5009170;28;20052;-90
2022/12/17 14:08:43;;;;;;;3.83;2.00;;;9.20;62.80;;;;;;5014956;28;19928;-85
2022/12/17 14:14:33;;;;;;;6.95;2.53;;;9.10;62.70;;;;;;5023485;28;20079;-85
2022/12/17 14:17:26;;;;;;;4.60;2.22;;;9.00;62.50;;;;;;5024789;28;20040;-85
2022/12/17 14:20:15;;;;;;;2.95;2.30;;;9.00;62.50;;;;;;5011239;28;20056;-83
2022/12/17 14:23:05;;;;;;;4.47;2.22;;;8.90;62.40;;;;;;5016193;28;20056;-84
2022/12/17 14:25:49;;;;;;;3.50;2.33;;;8.90;62.50;;;;;;5026136;28;20146;-83
2022/12/17 14:28:43;;;;;;;4.75;2.25;;;8.80;62.30;;;;;;5018180;28;20104;-84
2022/12/17 14:31:28;;;;;;;5.93;2.58;;;8.80;62.30;;;;;;5026091;28;20132;-76
2022/12/17 14:34:15;;;;;;;5.70;2.70;;;8.70;62.20;;;;;;5017755;28;20079;-78
2022/12/17 14:37:00;;;;;;;3.88;2.20;;;8.70;62.20;;;;;;5010930;28;20072;-80
2022/12/17 14:39:46;;;;;;;3.50;2.35;;;8.60;61.90;;;;;;5025437;28;20072;-80
2022/12/17 14:42:35;;;;;;;4.10;2.28;;;8.60;61.90;;;;;;5014624;28;20087;-82
2022/12/17 14:45:23;;;;;;;4.43;2.17;;;8.60;61.90;;;;;;5010946;28;20048;-85
2022/12/17 14:48:14;;;;;;;3.90;2.50;;;8.60;62.00;;;;;;4990614;28;20179;-82
2022/12/17 14:51:00;;;;;;;5.00;2.20;;;8.50;61.80;;;;;;5024522;28;20044;-80
2022/12/17 14:53:45;;;;;;;3.80;2.47;;;8.40;61.60;;;;;;5013017;28;20141;-83
2022/12/17 14:56:30;;;;;;;4.15;2.50;;;8.40;61.60;;;;;;5007850;28;20130;-78
2022/12/17 14:59:34;;;;;;;4.28;2.33;;;8.40;61.70;;;;;;5017237;28;20044;-75
2022/12/17 15:02:29;;;;;;;4.22;2.38;;;8.30;61.50;;;;;;5014538;28;20445;-75
2022/12/17 15:05:14;;;;;;;3.85;2.47;;;8.30;61.60;;;;;;5014025;28;20045;-75
2022/12/17 15:07:59;;;;;;;5.53;3.05;;;8.20;61.50;;;;;;4995054;28;20039;-75
2022/12/17 15:10:44;;;;;;;4.80;2.50;;;8.20;61.50;;;;;;5025085;28;20048;-76
2022/12/17 15:13:28;;;;;;;4.53;2.78;;;8.20;61.50;;;;;;5008868;28;20821;-76
2022/12/17 15:16:13;;;;;;;4.50;2.45;;;8.20;61.60;;;;;;5023243;28;20678;-80
2022/12/17 15:18:59;;;;;;;6.55;2.83;;;8.10;61.40;;;;;;5012984;28;20102;-82
2022/12/17 15:21:43;;;;;;;5.57;3.25;;;8.10;61.40;;;;;;5024294;28;20079;-82
2022/12/17 15:24:28;;;;;;;6.55;3.35;;;8.00;61.30;;;;;;5022538;28;20111;-83
2022/12/17 15:27:15;;;;;;;4.53;3.20;;;8.00;61.30;;;;;;5007198;28;20068;-84
2022/12/17 15:29:59;;;;;;;7.30;3.15;;;8.00;61.40;;;;;;5018403;28;20113;-82
2022/12/17 15:32:45;;;;;;;5.95;2.92;;;7.90;61.30;;;;;;5026697;28;20072;-86
2022/12/17 15:35:29;;;;;;;7.07;2.83;;;7.90;61.30;;;;;;5010217;28;20628;-86
2022/12/17 15:38:13;;;;;;;7.43;3.13;;;7.80;61.20;;;;;;5022182;28;21166;-84
2022/12/17 15:40:59;;;;;;;6.43;3.15;;;7.70;61.10;;;;;;5025867;28;20607;-86
2022/12/17 15:43:44;;;;;;;4.32;2.55;;;7.70;61.20;;;;;;5010656;28;20168;-85
2022/12/17 15:46:28;;;;;;;6.82;3.08;;;7.60;61.00;;;;;;5022707;28;20072;-90
2022/12/17 15:49:13;;;;;;;7.25;3.53;;;7.60;61.20;;;;;;5011078;28;20040;-88
2022/12/17 15:51:57;;;;;;;5.88;2.83;;;7.50;61.00;;;;;;5025461;28;20518;-85
2022/12/17 15:54:42;;;;;;;6.32;2.75;;;7.40;60.90;;;;;;5019586;28;20117;-82
2022/12/17 15:57:27;;;;;;;4.40;2.97;;;7.40;61.00;;;;;;5012549;28;20090;-85
2022/12/17 16:00:12;;;;;;;6.93;3.25;;;7.30;60.90;;;;;;5022398;28;20064;-81
2022/12/17 16:02:56;;;;;;;4.28;2.70;;;7.30;61.00;;;;;;5020272;28;20040;-81
2022/12/17 16:05:40;;;;;;;6.25;3.47;;;7.20;60.90;;;;;;4999333;28;20390;-79
2022/12/17 16:08:25;;;;;;;7.25;3.60;;;7.20;61.00;;;;;;5008539;28;20110;-78
2022/12/17 16:11:12;;;;;;;4.60;3.03;;;7.10;61.00;;;;;;5010967;28;20092;-80
2022/12/17 16:13:56;;;;;;;7.95;3.10;;;7.00;60.90;;;;;;5021379;28;20117;-79
2022/12/17 16:16:41;;;;;;;6.68;2.60;;;6.90;60.80;;;;;;5003583;28;20052;-77
2022/12/17 16:19:25;;;;;;;5.43;3.60;;;6.90;61.50;;;;;;5020315;28;20052;-77
2022/12/17 16:22:10;;;;;;;4.43;3.10;;;6.80;60.90;;;;;;5012095;28;20044;-77
2022/12/17 16:24:55;;;;;;;4.43;3.15;;;6.70;60.80;;;;;;5006660;28;20044;-79
2022/12/17 16:27:40;;;;;;;3.65;2.95;;;6.60;60.70;;;;;;5021696;28;20546;-80
2022/12/17 16:30:24;;;;;;;8.75;3.03;;;6.60;60.80;;;;;;5005184;28;20045;-81
2022/12/17 16:33:09;;;;;;;5.80;3.50;;;6.50;60.80;;;;;;5022470;28;20099;-80
2022/12/17 16:35:54;;;;;;;5.10;3.83;;;6.50;60.90;;;;;;5010948;28;20087;-79
2022/12/17 16:38:50;;;;;;;8.45;3.40;;;6.40;60.80;;;;;;5022091;28;20105;-79
2022/12/17 16:41:35;;;;;;;7.00;4.10;;;6.30;60.70;;;;;;5012818;28;20048;-80
2022/12/17 16:44:19;;;;;;;7.60;3.83;;;6.20;60.60;;;;;;5021582;28;20133;-81
2022/12/17 16:47:04;;;;;;;5.63;4.25;;;6.10;60.60;;;;;;5012817;28;20188;-81
2022/12/17 16:49:49;;;;;;;3.78;3.17;;;6.10;60.70;;;;;;5006744;28;20041;-86
2022/12/17 16:52:34;;;;;;;5.47;3.50;;;6.00;60.50;;;;;;5013579;28;20098;-75
2022/12/17 16:55:18;;;;;;;5.90;3.80;;;5.90;60.40;;;;;;5017328;28;20140;-75
2022/12/17 16:58:03;;;;;;;5.90;3.65;;;5.90;60.50;;;;;;5020771;28;20519;-75
2022/12/17 17:00:53;;;;;;;6.47;3.72;;;5.80;60.40;;;;;;5021077;28;20087;-79
2022/12/17 17:03:41;;;;;;;5.13;3.75;;;5.80;60.60;;;;;;4998165;28;20040;-81
2022/12/17 17:06:26;;;;;;;7.47;4.15;;;5.70;60.50;;;;;;5015428;28;20041;-80
2022/12/17 17:09:11;;;;;;;7.88;4.47;;;5.60;60.40;;;;;;5017352;28;20045;-80
2022/12/17 17:11:57;;;;;;;5.18;3.83;;;5.60;60.40;;;;;;5022921;28;20372;-80
2022/12/17 17:14:43;;;;;;;5.28;3.50;;;5.50;60.30;;;;;;5021008;28;20048;-82
2022/12/17 17:17:27;;;;;;;3.85;3.20;;;5.50;60.40;;;;;;5021352;28;20160;-82
2022/12/17 17:20:12;;;;;;;5.43;3.95;;;5.40;60.30;;;;;;5022050;28;20103;-84
2022/12/17 17:22:56;;;;;;;5.88;3.80;;;5.30;60.20;;;;;;5013165;28;20148;-78
2022/12/17 17:25:40;;;;;;;5.55;3.80;;;5.30;60.30;;;;;;5016498;28;20044;-77
2022/12/17 17:28:25;;;;;;;5.82;3.67;;;5.20;60.20;;;;;;5002186;28;20123;-78
2022/12/17 17:31:11;;;;;;;7.30;3.85;;;5.20;60.30;;;;;;4997506;28;20098;-80
2022/12/17 17:33:56;;;;;;;5.55;3.47;;;5.10;60.20;;;;;;5030239;28;20049;-85
2022/12/17 17:36:41;;;;;;;5.45;4.57;;;5.10;60.60;;;;;;5024384;28;20056;-81
2022/12/17 17:39:26;;;;;;;6.32;3.92;;;5.20;61.00;;;;;;5015513;28;20056;-82
2022/12/17 17:42:11;;;;;;;4.15;3.25;;;5.20;61.00;;;;;;5004478;28;20049;-79
2022/12/17 17:44:56;;;;;;;5.57;3.70;;;5.30;61.30;;;;;;5006924;28;20144;-81
2022/12/17 17:47:40;;;;;;;5.97;3.90;;;5.30;61.20;;;;;;5005083;28;20101;-80
2022/12/17 17:50:25;;;;;;;10.90;4.32;;;5.30;61.20;;;;;;5013509;28;20535;-80
2022/12/17 17:53:09;;;;;;;5.50;4.13;;;5.20;61.00;;;;;;5027176;28;20081;-80
2022/12/17 17:55:54;;;;;;;5.50;3.88;;;5.20;61.10;;;;;;5022773;28;20095;-80
2022/12/17 17:58:41;;;;;;;6.28;4.30;;;5.10;61.00;;;;;;5013251;28;20048;-80
2022/12/17 18:01:27;;;;;;;5.20;3.70;;;5.00;60.90;;;;;;5022576;28;20052;-80
2022/12/17 18:04:14;;;;;;;5.15;3.65;;;4.90;60.80;;;;;;5021762;28;20032;-78
2022/12/17 18:06:59;;;;;;;4.13;3.67;;;4.80;60.80;;;;;;5018140;28;20144;-79
2022/12/17 18:09:44;;;;;;;6.05;4.30;;;4.80;60.90;;;;;;4996214;28;20029;-80
2022/12/17 18:15:31;;;;;;;5.80;3.70;;;4.60;60.70;;;;;;5014652;28;20076;-82
2022/12/17 18:18:16;;;;;;;6.25;3.90;;;4.50;60.60;;;;;;5011622;28;20056;-82
2022/12/17 18:21:20;;;;;;;5.55;3.40;;;4.50;60.70;;;;;;5022002;28;20064;-83
2022/12/17 18:24:09;;;;;;;6.68;4.00;;;4.40;60.60;;;;;;5019803;28;20040;-81
2022/12/17 18:26:53;;;;;;;9.75;4.22;;;4.30;60.50;;;;;;5015938;28;20040;-81
2022/12/17 18:29:38;;;;;;;4.93;3.53;;;4.30;60.60;;;;;;5008357;28;20511;-82
2022/12/17 18:32:22;;;;;;;4.28;3.47;;;4.30;60.60;;;;;;5005743;28;20111;-82
2022/12/17 18:35:08;;;;;;;5.75;3.60;;;4.20;60.50;;;;;;5019285;28;20455;-82
2022/12/17 18:37:52;;;;;;;6.18;3.70;;;4.10;60.40;;;;;;5010413;28;20519;-81
2022/12/17 18:40:37;;;;;;;4.30;3.05;;;4.10;60.70;;;;;;5019490;28;20132;-85
2022/12/17 18:43:22;;;;;;;4.88;3.17;;;4.10;60.80;;;;;;5024651;28;20063;-81
2022/12/17 18:46:06;;;;;;;7.20;3.20;;;4.20;61.00;;;;;;5006860;28;20040;-80
2022/12/17 18:48:52;;;;;;;6.00;3.10;;;4.20;61.10;;;;;;5017597;28;20048;-79
2022/12/17 18:51:39;;;;;;;5.78;2.88;;;4.30;61.20;;;;;;5025329;28;20095;-78
2022/12/17 18:54:26;;;;;;;3.15;2.78;;;4.30;61.10;;;;;;5026249;28;20342;-80
2022/12/17 18:57:11;;;;;;;2.97;2.45;;;4.30;61.10;;;;;;5019298;28;20095;-84
2022/12/17 18:59:55;;;;;;;4.65;2.92;;;4.20;60.90;;;;;;5017913;28;20052;-84
2022/12/17 19:02:40;;;;;;;5.40;3.78;;;4.20;61.00;;;;;;5023526;28;20037;-84
2022/12/17 19:05:24;;;;;;;5.03;3.08;;;4.10;60.90;;;;;;5013109;28;20115;-83
2022/12/17 19:08:09;;;;;;;4.00;3.08;;;4.10;61.60;;;;;;5024833;28;20140;-83
2022/12/17 19:10:53;;;;;;;4.05;3.08;;;4.00;60.90;;;;;;5021218;28;20040;-79
2022/12/17 19:13:38;;;;;;;6.03;3.53;;;4.00;60.90;;;;;;5023661;28;20555;-85
2022/12/17 19:16:26;;;;;;;4.45;3.30;;;3.80;60.60;;;;;;5024205;28;20467;-86
2022/12/17 19:19:11;;;;;;;5.18;4.05;;;3.80;60.70;;;;;;5007405;28;20059;-86
2022/12/17 19:21:58;;;;;;;7.93;4.45;;;3.80;60.80;;;;;;5011436;28;20101;-76
2022/12/17 19:24:42;;;;;;;6.40;3.97;;;3.70;60.60;;;;;;5024899;28;20523;-77
2022/12/17 19:27:27;;;;;;;7.35;4.78;;;3.60;60.50;;;;;;5015898;28;20041;-76
2022/12/17 19:30:12;;;;;;;7.63;5.00;;;3.60;60.60;;;;;;5008964;28;20488;-77
2022/12/17 19:32:57;;;;;;;7.88;4.82;;;3.60;60.70;;;;;;5005778;28;20059;-76
2022/12/17 19:35:41;;;;;;;6.30;5.22;;;3.50;60.50;;;;;;5022124;28;20048;-76
2022/12/17 19:38:25;;;;;;;6.50;5.45;;;3.50;60.60;;;;;;5011431;28;20068;-77
2022/12/17 19:41:16;;;;;;;10.70;5.43;;;3.50;60.60;;;;;;5022535;28;20132;-77
2022/12/17 19:44:03;;;;;;;7.93;5.60;;;3.40;60.50;;;;;;5021315;28;20049;-76
2022/12/17 19:46:47;;;;;;;7.88;5.47;;;3.40;60.50;;;;;;5011757;28;20060;-75
2022/12/17 19:49:33;;;;;;;9.43;5.90;;;3.30;60.30;;;;;;5015792;28;20167;-76
2022/12/17 19:52:18;;;;;;;8.20;5.47;;;3.30;60.40;;;;;;5012746;28;20044;-76
2022/12/17 19:55:03;;;;;;;9.02;5.13;;;3.20;60.30;;;;;;5013953;28;20064;-76
2022/12/17 19:57:48;;;;;;;6.03;5.03;;;3.20;60.30;;;;;;5005576;28;20119;-76
2022/12/17 20:00:34;;;;;;;7.90;5.45;;;3.10;60.20;;;;;;5020622;28;20115;-76
2022/12/17 20:03:18;;;;;;;6.10;5.50;;;3.10;60.20;;;;;;5011446;28;20041;-75
2022/12/17 20:06:03;;;;;;;6.32;4.80;;;3.00;60.10;;;;;;5022826;28;20055;-75
2022/12/17 20:08:49;;;;;;;8.38;5.50;;;3.00;60.10;;;;;;5017435;28;20048;-75
2022/12/17 20:11:34;;;;;;;7.38;5.35;;;3.00;60.10;;;;;;5023109;28;20203;-75
2022/12/17 20:14:22;;;;;;;7.50;6.00;;;2.90;60.00;;;;;;5008600;28;20118;-75
2022/12/17 20:17:09;;;;;;;9.30;5.80;;;2.90;60.00;;;;;;5021632;28;20051;-75
2022/12/17 20:19:55;;;;;;;10.05;6.97;;;2.80;59.90;;;;;;5011090;28;20174;-75
2022/12/17 20:22:40;;;;;;;10.70;6.88;;;2.80;60.00;;;;;;5012346;28;20060;-75
2022/12/17 20:25:24;;;;;;;12.70;8.45;;;2.70;59.80;;;;;;5015893;28;20645;-77
2022/12/17 20:28:09;;;;;;;12.00;7.57;;;2.70;59.80;;;;;;5017753;28;20503;-77
2022/12/17 20:30:54;;;;;;;9.00;6.78;;;2.70;59.90;;;;;;5017958;28;20274;-76
2022/12/17 20:33:38;;;;;;;9.70;6.90;;;2.60;59.70;;;;;;5013834;28;20048;-76
2022/12/17 20:36:24;;;;;;;8.65;6.80;;;2.60;59.80;;;;;;5014182;28;20707;-75
2022/12/17 20:39:10;;;;;;;11.15;7.35;;;2.60;59.80;;;;;;5009994;28;20464;-75
2022/12/17 20:41:56;;;;;;;10.43;7.05;;;2.50;59.60;;;;;;5018718;28;20051;-75
2022/12/17 20:44:40;;;;;;;8.30;6.65;;;2.50;59.60;;;;;;5021338;28;20045;-73
2022/12/17 20:47:25;;;;;;;9.70;6.68;;;2.50;59.60;;;;;;5007208;28;20100;-73
2022/12/17 20:50:10;;;;;;;8.02;7.18;;;2.50;59.60;;;;;;4992353;28;20041;-73
2022/12/17 20:52:54;;;;;;;8.80;6.60;;;2.40;59.50;;;;;;5011500;28;20491;-73
2022/12/17 20:55:39;;;;;;;8.90;6.95;;;2.40;59.50;;;;;;5006622;28;20052;-73
2022/12/17 20:58:24;;;;;;;9.43;6.47;;;2.30;59.30;;;;;;5006466;28;20543;-74
2022/12/17 21:01:20;;;;;;;10.20;7.18;;;2.30;59.30;;;;;;5017805;28;20132;-73
2022/12/17 21:04:06;;;;;;;10.98;7.20;;;2.30;59.40;;;;;;5019421;28;20091;-74
2022/12/17 21:06:51;;;;;;;10.55;7.10;;;2.30;59.40;;;;;;5011117;28;20469;-73
2022/12/17 21:09:35;;;;;;;11.13;7.35;;;2.20;59.30;;;;;;5018456;28;20455;-74
2022/12/17 21:12:20;;;;;;;8.88;7.55;;;2.20;59.90;;;;;;5015769;28;20144;-74
2022/12/17 21:15:04;;;;;;;9.93;6.88;;;2.10;59.20;;;;;;5025326;28;20072;-75
2022/12/17 21:17:49;;;;;;;14.00;7.57;;;2.10;59.20;;;;;;5016504;28;20100;-73
2022/12/17 21:20:34;;;;;;;10.00;7.10;;;2.10;59.20;;;;;;5021672;28;20056;-74
2022/12/17 21:23:18;;;;;;;9.45;7.68;;;2.10;59.20;;;;;;5020869;28;20049;-75
2022/12/17 21:26:06;;;;;;;8.57;6.55;;;2.10;59.30;;;;;;4997711;28;20240;-74
2022/12/17 21:28:53;;;;;;;10.20;6.65;;;2.00;59.10;;;;;;5014125;28;20060;-74
2022/12/17 21:31:50;;;;;;;7.85;6.85;;;2.00;59.10;;;;;;5014661;28;20308;-74
2022/12/17 21:34:34;;;;;;;9.57;7.00;;;2.00;59.10;;;;;;4997810;28;20116;-74
2022/12/17 21:37:18;;;;;;;8.65;6.97;;;1.90;59.00;;;;;;5017463;28;20124;-74
2022/12/17 21:40:03;;;;;;;11.23;7.40;;;1.90;59.00;;;;;;5021764;28;20057;-74
2022/12/17 21:43:00;;;;;;;10.27;7.55;;;1.90;59.00;;;;;;5013041;28;20099;-73
2022/12/17 21:45:45;;;;;;;8.60;6.88;;;1.90;59.30;;;;;;5008809;28;20102;-73
2022/12/17 21:48:29;;;;;;;11.52;7.30;;;1.90;59.00;;;;;;5011056;28;20483;-73
2022/12/17 21:51:14;;;;;;;9.65;7.90;;;1.90;59.00;;;;;;5021285;28;20184;-73
2022/12/17 21:54:01;;;;;;;9.68;7.05;;;1.80;58.90;;;;;;5009693;28;20072;-73
2022/12/17 21:56:46;;;;;;;8.68;7.45;;;1.80;58.90;;;;;;5007617;28;20384;-75
2022/12/17 21:59:31;;;;;;;9.43;6.78;;;1.80;59.00;;;;;;5013541;28;20440;-74
2022/12/17 22:02:15;;;;;;;12.07;7.88;;;1.70;58.80;;;;;;5020510;28;20105;-74
2022/12/17 22:05:00;;;;;;;10.18;7.75;;;1.70;58.80;;;;;;5009398;28;20125;-78
2022/12/17 22:07:45;;;;;;;8.68;7.15;;;1.70;58.80;;;;;;5017939;28;20099;-79
2022/12/17 22:10:30;;;;;;;10.98;7.82;;;1.60;58.70;;;;;;5022190;28;20079;-77
2022/12/17 22:16:18;;;;;;;10.27;7.25;;;1.60;58.70;;;;;;5025186;28;20080;-76
2022/12/17 22:19:03;;;;;;;9.65;7.35;;;1.50;58.60;;;;;;5018932;28;20131;-77
2022/12/17 22:21:49;;;;;;;8.73;7.43;;;1.50;58.60;;;;;;5025595;28;20443;-77
2022/12/17 22:24:33;;;;;;;10.98;7.13;;;1.50;58.70;;;;;;5007203;28;20041;-76
2022/12/17 22:27:18;;;;;;;10.55;7.25;;;1.50;58.70;;;;;;5020730;28;20076;-76
2022/12/17 22:33:09;;;;;;;7.93;7.13;;;1.40;58.60;;;;;;5013602;28;20060;-75
2022/12/17 22:36:00;;;;;;;10.68;7.65;;;1.40;58.60;;;;;;5020466;28;20043;-75
2022/12/17 22:38:44;;;;;;;9.68;7.07;;;1.40;58.60;;;;;;5022711;28;20429;-75
2022/12/17 22:44:33;;;;;;;9.20;7.47;;;1.40;58.60;;;;;;5026327;28;20122;-76
2022/12/17 22:47:17;;;;;;;10.93;7.97;;;1.40;58.60;;;;;;5031551;28;20110;-76
2022/12/17 22:50:02;;;;;;;9.95;7.72;;;1.40;58.60;;;;;;5034777;28;20056;-77
2022/12/17 22:52:46;;;;;;;9.73;7.13;;;1.30;58.50;;;;;;5040912;28;20036;-77
2022/12/17 22:55:31;;;;;;;11.05;7.35;;;1.30;58.50;;;;;;5024580;28;20171;-76
2022/12/17 22:58:16;;;;;;;12.13;7.15;;;1.30;58.50;;;;;;5006596;28;20076;-76
2022/12/17 23:01:01;;;;;;;9.48;6.90;;;1.30;58.50;;;;;;5036983;28;20106;-77
2022/12/17 23:03:45;;;;;;;8.02;7.15;;;1.30;58.60;;;;;;5024583;28;20112;-76
2022/12/17 23:06:30;;;;;;;9.20;7.00;;;1.30;58.60;;;;;;5019333;28;20138;-76
2022/12/17 23:09:19;;;;;;;11.90;6.80;;;1.30;58.60;;;;;;5034031;28;20079;-76
2022/12/17 23:15:07;;;;;;;11.15;7.15;;;1.20;58.50;;;;;;5014585;28;20056;-76
2022/12/17 23:17:54;;;;;;;7.95;6.32;;;1.20;58.50;;;;;;5006611;28;20098;-76
2022/12/17 23:20:39;;;;;;;8.02;6.72;;;1.20;58.50;;;;;;4998216;28;20137;-76
2022/12/17 23:23:23;;;;;;;10.75;7.38;;;1.20;58.50;;;;;;5014620;28;20337;-77
2022/12/17 23:26:29;;;;;;;12.27;6.90;;;1.20;58.50;;;;;;5025004;28;20040;-77
2022/12/17 23:29:14;;;;;;;8.70;6.82;;;1.20;58.60;;;;;;5016546;28;20120;-77
2022/12/17 23:32:01;;;;;;;9.82;6.97;;;1.20;58.60;;;;;;5020035;28;20096;-76
2022/12/17 23:34:46;;;;;;;11.88;7.40;;;1.20;58.60;;;;;;5017697;28;20061;-77
2022/12/17 23:37:30;;;;;;;9.88;7.95;;;1.20;58.60;;;;;;5015072;28;20524;-76
2022/12/17 23:40:15;;;;;;;11.82;7.95;;;1.20;58.60;;;;;;5024617;28;20819;-76
2022/12/17 23:42:59;;;;;;;8.65;7.70;;;1.10;58.40;;;;;;5019057;28;20072;-76
2022/12/17 23:45:44;;;;;;;11.23;7.70;;;1.10;58.50;;;;;;5031116;28;20043;-76
2022/12/17 23:48:30;;;;;;;12.00;7.82;;;1.10;58.50;;;;;;4984826;28;20426;-76
2022/12/17 23:51:17;;;;;;;9.68;7.68;;;1.10;58.50;;;;;;4978785;28;20051;-77
2022/12/17 23:54:02;;;;;;;10.25;7.65;;;1.10;58.50;;;;;;4975737;28;20158;-77
2022/12/17 23:56:46;;;;;;;12.40;8.20;;;1.00;58.30;;;;;;4980913;28;20462;-77
2022/12/17 23:59:31;;;;;;;14.07;7.57;;;1.10;58.50;;;;;;4979013;28;20369;-77
